createdAt,value
2022-11-14T00:04:25.445Z,97051.22
2022-11-14T00:09:21.611Z,97048.69
2022-11-14T00:14:16.198Z,97043.75
2022-11-14T00:19:09.418Z,97038.25
2022-11-14T00:24:02.957Z,97033.72
2022-11-14T00:28:56.754Z,97046.47
2022-11-14T00:33:51.439Z,97032.88
2022-11-14T00:38:44.777Z,97015.25
2022-11-14T00:43:38.007Z,97011.47
2022-11-14T00:48:32.042Z,96992.38
2022-11-14T00:53:26.905Z,96994.78
2022-11-14T00:58:20.185Z,96991.06
2022-11-14T01:03:13.430Z,97005.69
2022-11-14T01:08:06.876Z,96993.59
2022-11-14T01:13:01.701Z,96998.03
2022-11-14T01:17:55.045Z,97012.00
2022-11-14T01:22:48.290Z,97020.00
2022-11-14T01:27:41.949Z,97016.97
2022-11-14T01:32:36.564Z,97007.19
2022-11-14T01:37:29.811Z,96989.84
2022-11-14T01:42:27.166Z,96980.75
2022-11-14T01:47:25.739Z,96970.94
2022-11-14T01:52:25.754Z,96965.19
2022-11-14T01:57:26.546Z,96979.34
2022-11-14T02:02:22.912Z,96983.44
2022-11-14T02:07:17.137Z,96989.94
2022-11-14T02:12:17.786Z,96983.06
2022-11-14T02:22:25.800Z,96975.88
2022-11-14T02:27:19.143Z,96979.22
2022-11-14T02:32:12.502Z,96973.72
2022-11-14T02:37:06.189Z,96988.25
2022-11-14T02:42:00.856Z,96979.59
2022-11-14T02:46:54.351Z,96970.47
2022-11-14T02:51:47.622Z,96973.91
2022-11-14T02:56:40.887Z,96970.28
2022-11-14T03:01:35.957Z,96980.44
2022-11-14T03:06:29.645Z,96984.16
2022-11-14T03:11:23.075Z,96984.78
2022-11-14T03:16:16.536Z,96989.09
2022-11-14T03:21:14.963Z,96984.53
2022-11-14T03:26:11.368Z,96970.47
2022-11-14T03:31:05.607Z,96971.84
2022-11-14T03:35:59.023Z,96964.69
2022-11-14T03:40:53.897Z,96965.91
2022-11-14T03:45:48.043Z,96967.78
2022-11-14T03:50:41.424Z,96962.66
2022-11-14T03:55:34.856Z,96960.53
2022-11-14T04:00:30.014Z,96962.47
2022-11-14T04:05:23.496Z,96964.25
2022-11-14T04:10:17.780Z,96970.38
2022-11-14T04:15:11.984Z,96969.72
2022-11-14T04:20:08.189Z,96955.31
2022-11-14T04:25:01.504Z,96956.81
2022-11-14T04:29:54.786Z,96939.66
2022-11-14T04:34:48.187Z,96941.88
2022-11-14T04:39:42.876Z,96925.41
2022-11-14T04:44:36.277Z,96920.31
2022-11-14T04:49:29.554Z,96916.31
2022-11-14T04:54:22.946Z,96919.56
2022-11-14T04:59:20.907Z,96918.81
2022-11-14T05:04:14.702Z,96907.28
2022-11-14T05:09:08.246Z,96908.22
2022-11-14T05:14:01.492Z,96908.66
2022-11-14T05:18:56.517Z,96907.72
2022-11-14T05:23:49.751Z,96900.94
2022-11-14T05:28:43.100Z,96896.34
2022-11-14T05:33:37.348Z,96894.78
2022-11-14T05:38:32.476Z,96896.84
2022-11-14T05:43:26.606Z,96899.28
2022-11-14T05:48:19.956Z,96901.31
2022-11-14T05:53:13.262Z,96893.50
2022-11-14T05:58:07.894Z,96898.34
2022-11-14T06:03:01.142Z,96895.34
2022-11-14T06:07:57.863Z,96883.09
2022-11-14T06:12:51.186Z,96877.28
2022-11-14T06:17:46.361Z,96875.88
2022-11-14T06:22:39.647Z,96887.53
2022-11-14T06:27:33.698Z,96903.81
2022-11-14T06:32:26.942Z,96906.53
2022-11-14T06:37:21.524Z,96916.31
2022-11-14T06:42:16.938Z,96922.84
2022-11-14T06:47:10.600Z,96925.06
2022-11-14T06:52:03.910Z,96934.44
2022-11-14T06:56:58.625Z,96928.50
2022-11-14T07:01:51.986Z,96924.47
2022-11-14T07:06:45.368Z,96928.56
2022-11-14T07:11:41.094Z,96930.53
2022-11-14T07:16:37.243Z,96934.72
2022-11-14T07:21:32.476Z,96940.78
2022-11-14T07:26:26.248Z,96938.56
2022-11-14T07:31:21.799Z,96946.25
2022-11-14T07:36:17.966Z,96938.88
2022-11-14T07:41:14.144Z,96948.94
2022-11-14T07:46:11.568Z,96965.47
2022-11-14T07:51:07.673Z,96969.72
2022-11-14T07:56:09.671Z,96979.34
2022-11-14T08:01:03.956Z,96978.00
2022-11-14T08:06:02.652Z,96971.50
2022-11-14T08:10:58.909Z,96971.56
2022-11-14T08:15:54.370Z,96963.97
2022-11-14T08:20:48.761Z,96983.59
2022-11-14T08:25:43.003Z,96981.63
2022-11-14T08:30:37.197Z,96980.50
2022-11-14T08:35:32.155Z,96974.91
2022-11-14T08:40:25.612Z,96984.31
2022-11-14T08:45:19.254Z,96987.03
2022-11-14T08:50:12.543Z,96986.19
2022-11-14T08:55:08.334Z,96984.88
2022-11-14T09:00:01.639Z,96993.16
2022-11-14T09:04:55.065Z,96994.94
2022-11-14T09:09:48.562Z,96998.88
2022-11-14T09:14:45.917Z,96990.28
2022-11-14T09:19:47.102Z,96987.03
2022-11-14T09:24:49.222Z,96986.38
2022-11-14T09:30:09.022Z,96974.06
2022-11-14T09:35:03.885Z,96972.00
2022-11-14T09:40:10.800Z,96978.50
2022-11-14T09:45:16.655Z,96975.84
2022-11-14T09:50:26.583Z,96973.34
2022-11-14T09:55:26.414Z,96974.91
2022-11-14T10:00:42.687Z,96972.13
2022-11-14T10:06:14.157Z,96974.44
2022-11-14T10:11:27.204Z,96961.28
2022-11-14T10:16:36.773Z,96958.13
2022-11-14T10:22:01.874Z,96963.06
2022-11-14T10:27:12.420Z,96956.06
2022-11-14T10:32:29.809Z,96961.22
2022-11-14T10:37:40.008Z,96961.53
2022-11-14T10:42:42.910Z,96962.06
2022-11-14T10:48:07.737Z,96960.91
2022-11-14T10:53:18.109Z,96961.84
2022-11-14T10:58:22.708Z,96961.44
2022-11-14T11:03:48.515Z,96958.72
2022-11-14T11:09:16.629Z,96960.50
2022-11-14T11:14:23.946Z,96955.19
2022-11-14T11:25:16.819Z,96944.09
2022-11-14T11:37:34.357Z,96942.06
2022-11-14T11:43:23.783Z,96937.75
2022-11-14T11:48:07.091Z,96928.00
2022-11-14T11:53:19.294Z,96919.91
2022-11-14T11:58:29.971Z,96927.50
2022-11-14T12:09:12.296Z,96920.59
2022-11-14T12:15:09.337Z,96923.03
2022-11-14T12:20:50.849Z,96909.25
2022-11-14T12:26:07.632Z,96924.28
2022-11-14T12:31:15.849Z,96920.72
2022-11-14T12:36:15.512Z,96900.91
2022-11-14T12:41:30.124Z,96926.50
2022-11-14T12:46:26.055Z,96924.78
2022-11-14T12:51:53.600Z,96930.97
2022-11-14T12:57:35.014Z,96925.50
2022-11-14T13:03:31.839Z,96911.16
2022-11-14T13:09:40.707Z,96905.91
2022-11-14T13:21:04.164Z,96908.69
2022-11-14T13:27:05.826Z,96906.56
2022-11-14T13:32:14.066Z,96913.44
2022-11-14T13:37:43.071Z,96903.78
2022-11-14T13:43:03.360Z,96886.53
2022-11-14T13:48:47.760Z,96891.03
2022-11-14T13:53:57.688Z,96897.47
2022-11-14T13:59:44.028Z,96892.00
2022-11-14T14:05:10.237Z,96895.47
2022-11-14T14:10:28.280Z,96903.44
2022-11-14T14:15:42.903Z,96895.34
2022-11-14T14:20:50.104Z,96890.34
2022-11-14T14:26:04.929Z,96892.00
2022-11-14T14:31:14.727Z,96899.03
2022-11-14T14:36:36.031Z,96905.81
2022-11-14T14:41:41.726Z,96906.06
2022-11-14T14:46:37.285Z,96909.72
2022-11-14T14:51:38.234Z,96911.78
2022-11-14T14:56:33.071Z,96903.72
2022-11-14T15:01:40.389Z,96906.06
2022-11-14T15:06:42.240Z,96905.69
2022-11-14T15:11:45.451Z,96919.34
2022-11-14T15:16:41.063Z,96918.00
2022-11-14T15:21:42.562Z,96908.59
2022-11-14T15:26:43.157Z,96916.88
2022-11-14T15:31:50.016Z,96914.38
2022-11-14T15:37:22.173Z,96905.06
2022-11-14T15:42:29.739Z,96915.75
2022-11-14T15:47:30.766Z,96917.16
2022-11-14T15:52:33.546Z,96920.22
2022-11-14T15:57:31.425Z,96913.53
2022-11-14T16:02:33.106Z,96921.31
2022-11-14T16:07:28.050Z,96914.84
2022-11-14T16:12:24.879Z,96900.50
2022-11-14T16:17:19.882Z,96893.50
2022-11-14T16:22:18.827Z,96886.16
2022-11-14T16:27:12.439Z,96890.56
2022-11-14T16:32:08.102Z,96907.19
2022-11-14T16:37:16.225Z,96887.94
2022-11-14T16:42:15.038Z,96881.88
2022-11-14T16:47:12.144Z,96886.34
2022-11-14T16:52:08.925Z,96900.50
2022-11-14T16:57:04.555Z,96897.75
2022-11-14T17:02:02.949Z,96901.84
2022-11-14T17:07:04.216Z,96904.44
2022-11-14T17:12:04.245Z,96895.66
2022-11-14T17:17:02.018Z,96895.84
2022-11-14T17:21:57.795Z,96915.75
2022-11-14T17:26:53.155Z,96908.47
2022-11-14T17:31:48.000Z,96904.41
2022-11-14T17:36:55.092Z,96908.59
2022-11-14T17:41:48.700Z,96907.38
2022-11-14T17:46:42.341Z,96906.94
2022-11-14T17:51:44.133Z,96912.72
2022-11-14T17:56:46.503Z,96907.59
2022-11-14T18:01:43.931Z,96907.38
2022-11-14T18:06:47.349Z,96906.53
2022-11-14T18:11:50.269Z,96905.81
2022-11-14T18:22:14.294Z,96911.97
2022-11-14T18:27:19.747Z,96901.94
2022-11-14T18:32:18.369Z,96900.06
2022-11-14T18:37:19.267Z,96898.63
2022-11-14T18:42:15.847Z,96898.41
2022-11-14T18:47:25.427Z,96891.97
2022-11-14T18:52:21.148Z,96893.81
2022-11-14T18:57:26.407Z,96889.66
2022-11-14T19:02:27.320Z,96896.06
2022-11-14T19:07:34.551Z,96906.31
2022-11-14T19:12:28.015Z,96897.00
2022-11-14T19:18:46.352Z,96893.97
2022-11-14T19:24:25.178Z,96899.34
2022-11-14T19:29:54.629Z,96897.84
2022-11-14T19:35:45.337Z,96901.00
2022-11-14T19:42:15.735Z,96903.34
2022-11-14T20:06:48.283Z,96898.38
2022-11-14T20:50:22.504Z,96900.28
2022-11-14T20:56:00.750Z,96895.91
2022-11-14T21:00:57.830Z,96889.34
2022-11-14T21:05:53.623Z,96888.72
2022-11-14T21:11:07.411Z,96887.34
2022-11-14T21:16:04.753Z,96887.88
2022-11-14T21:21:04.212Z,96890.31
2022-11-14T21:26:08.162Z,96892.38
2022-11-14T21:31:18.203Z,96885.03
2022-11-14T21:36:44.966Z,96894.88
2022-11-14T21:41:30.813Z,96885.16
2022-11-14T21:46:32.413Z,96883.38
2022-11-14T21:51:29.554Z,96884.13
2022-11-14T21:56:25.800Z,96878.91
2022-11-14T22:01:44.670Z,96877.25
2022-11-14T22:06:40.376Z,96879.63
2022-11-14T22:11:33.912Z,96881.53
2022-11-14T22:16:28.094Z,96867.41
2022-11-14T22:21:24.390Z,96874.22
2022-11-14T22:26:28.905Z,96870.97
2022-11-14T22:31:24.488Z,96869.59
2022-11-14T22:36:28.598Z,96865.63
2022-11-14T22:41:32.283Z,96861.22
2022-11-14T22:46:33.006Z,96865.63
2022-11-14T22:51:28.749Z,96866.53
2022-11-14T22:56:32.430Z,96866.88
2022-11-14T23:01:28.892Z,96861.94
2022-11-14T23:06:30.141Z,96859.56
2022-11-14T23:11:33.052Z,96854.69
2022-11-14T23:16:36.218Z,96852.63
2022-11-14T23:21:40.661Z,96850.63
2022-11-14T23:26:36.023Z,96853.19
2022-11-14T23:31:40.422Z,96855.09
2022-11-14T23:36:33.691Z,96850.53
2022-11-14T23:41:27.061Z,96843.22
2022-11-14T23:46:21.712Z,96833.84
2022-11-14T23:51:17.906Z,96838.75
2022-11-14T23:56:31.757Z,96835.50
